sensor_id;sensor_type;location;lat;lon;timestamp;P1;durP1;ratioP1;P2;durP2;ratioP2
8092;SDS011;4089;52.420;13.334;2023-07-13T00:07:55;34.70;;;2.90;;
8092;SDS011;4089;52.420;13.334;2023-07-13T00:10:22;29.93;;;2.77;;
8092;SDS011;4089;52.420;13.334;2023-07-13T00:12:49;28.57;;;2.60;;
8092;SDS011;4089;52.420;13.334;2023-07-13T00:15:19;29.60;;;3.50;;
8092;SDS011;4089;52.420;13.334;2023-07-13T00:17:51;30.67;;;2.67;;
8092;SDS011;4089;52.420;13.334;2023-07-13T00:20:23;30.20;;;3.10;;
8092;SDS011;4089;52.420;13.334;2023-07-13T00:22:52;28.63;;;2.93;;
8092;SDS011;4089;52.420;13.334;2023-07-13T00:25:20;29.73;;;2.40;;
8092;SDS011;4089;52.420;13.334;2023-07-13T00:27:50;28.43;;;2.70;;
8092;SDS011;4089;52.420;13.334;2023-07-13T00:30:17;27.80;;;3.20;;
8092;SDS011;4089;52.420;13.334;2023-07-13T00:32:44;29.17;;;2.90;;
8092;SDS011;4089;52.420;13.334;2023-07-13T00:35:12;32.83;;;3.10;;
8092;SDS011;4089;52.420;13.334;2023-07-13T00:37:41;30.10;;;2.83;;
8092;SDS011;4089;52.420;13.334;2023-07-13T00:40:09;31.03;;;3.17;;
8092;SDS011;4089;52.420;13.334;2023-07-13T00:42:37;30.57;;;3.10;;
8092;SDS011;4089;52.420;13.334;2023-07-13T00:47:32;32.60;;;3.03;;
8092;SDS011;4089;52.420;13.334;2023-07-13T00:49:59;28.60;;;2.53;;
8092;SDS011;4089;52.420;13.334;2023-07-13T00:52:27;28.00;;;2.60;;
8092;SDS011;4089;52.420;13.334;2023-07-13T00:54:54;31.40;;;3.73;;
8092;SDS011;4089;52.420;13.334;2023-07-13T00:57:22;31.00;;;3.27;;
8092;SDS011;4089;52.420;13.334;2023-07-13T00:59:52;30.43;;;3.03;;
8092;SDS011;4089;52.420;13.334;2023-07-13T01:02:24;29.70;;;3.00;;
8092;SDS011;4089;52.420;13.334;2023-07-13T01:04:52;26.90;;;2.57;;
8092;SDS011;4089;52.420;13.334;2023-07-13T01:07:19;27.87;;;2.70;;
8092;SDS011;4089;52.420;13.334;2023-07-13T01:09:45;35.50;;;3.60;;
8092;SDS011;4089;52.420;13.334;2023-07-13T01:12:12;34.37;;;3.20;;
8092;SDS011;4089;52.420;13.334;2023-07-13T01:14:40;32.40;;;2.93;;
8092;SDS011;4089;52.420;13.334;2023-07-13T01:17:08;36.07;;;2.87;;
8092;SDS011;4089;52.420;13.334;2023-07-13T01:19:38;38.60;;;3.33;;
8092;SDS011;4089;52.420;13.334;2023-07-13T01:22:10;32.57;;;3.13;;
8092;SDS011;4089;52.420;13.334;2023-07-13T01:24:41;34.20;;;3.53;;
8092;SDS011;4089;52.420;13.334;2023-07-13T01:27:10;32.63;;;3.00;;
8092;SDS011;4089;52.420;13.334;2023-07-13T01:29:40;35.73;;;3.60;;
8092;SDS011;4089;52.420;13.334;2023-07-13T01:32:09;33.77;;;3.47;;
8092;SDS011;4089;52.420;13.334;2023-07-13T01:34:39;32.47;;;3.23;;
8092;SDS011;4089;52.420;13.334;2023-07-13T01:37:09;34.20;;;3.33;;
8092;SDS011;4089;52.420;13.334;2023-07-13T01:39:36;34.17;;;3.53;;
8092;SDS011;4089;52.420;13.334;2023-07-13T01:42:03;32.60;;;3.10;;
8092;SDS011;4089;52.420;13.334;2023-07-13T01:44:30;37.30;;;4.00;;
8092;SDS011;4089;52.420;13.334;2023-07-13T01:46:57;37.47;;;3.53;;
8092;SDS011;4089;52.420;13.334;2023-07-13T01:49:25;36.33;;;3.60;;
8092;SDS011;4089;52.420;13.334;2023-07-13T01:51:51;33.37;;;3.67;;
8092;SDS011;4089;52.420;13.334;2023-07-13T01:54:18;33.00;;;3.20;;
8092;SDS011;4089;52.420;13.334;2023-07-13T01:56:45;33.90;;;4.17;;
8092;SDS011;4089;52.420;13.334;2023-07-13T01:59:12;34.33;;;4.10;;
8092;SDS011;4089;52.420;13.334;2023-07-13T02:01:39;33.30;;;3.80;;
8092;SDS011;4089;52.420;13.334;2023-07-13T02:04:06;34.40;;;3.70;;
8092;SDS011;4089;52.420;13.334;2023-07-13T02:06:33;33.37;;;3.70;;
8092;SDS011;4089;52.420;13.334;2023-07-13T02:08:59;32.77;;;3.63;;
8092;SDS011;4089;52.420;13.334;2023-07-13T02:11:26;34.77;;;3.80;;
8092;SDS011;4089;52.420;13.334;2023-07-13T02:13:59;34.30;;;4.10;;
8092;SDS011;4089;52.420;13.334;2023-07-13T02:16:30;36.93;;;4.50;;
8092;SDS011;4089;52.420;13.334;2023-07-13T02:18:57;39.47;;;4.23;;
8092;SDS011;4089;52.420;13.334;2023-07-13T02:21:24;33.67;;;3.60;;
8092;SDS011;4089;52.420;13.334;2023-07-13T02:23:51;33.97;;;4.70;;
8092;SDS011;4089;52.420;13.334;2023-07-13T02:26:18;36.20;;;4.00;;
8092;SDS011;4089;52.420;13.334;2023-07-13T02:28:46;34.17;;;3.50;;
8092;SDS011;4089;52.420;13.334;2023-07-13T02:31:14;34.23;;;4.40;;
8092;SDS011;4089;52.420;13.334;2023-07-13T02:33:42;32.73;;;3.70;;
8092;SDS011;4089;52.420;13.334;2023-07-13T02:36:09;31.60;;;3.83;;
8092;SDS011;4089;52.420;13.334;2023-07-13T02:38:38;39.83;;;4.30;;
8092;SDS011;4089;52.420;13.334;2023-07-13T02:41:05;31.73;;;4.10;;
8092;SDS011;4089;52.420;13.334;2023-07-13T02:43:35;35.57;;;4.53;;
8092;SDS011;4089;52.420;13.334;2023-07-13T02:46:03;37.20;;;5.00;;
8092;SDS011;4089;52.420;13.334;2023-07-13T02:48:36;35.13;;;4.30;;
8092;SDS011;4089;52.420;13.334;2023-07-13T02:51:04;35.80;;;4.20;;
8092;SDS011;4089;52.420;13.334;2023-07-13T02:53:31;34.60;;;4.63;;
8092;SDS011;4089;52.420;13.334;2023-07-13T02:55:58;31.40;;;3.80;;
8092;SDS011;4089;52.420;13.334;2023-07-13T02:58:25;36.10;;;4.67;;
8092;SDS011;4089;52.420;13.334;2023-07-13T03:00:52;30.77;;;3.90;;
8092;SDS011;4089;52.420;13.334;2023-07-13T03:03:19;36.43;;;4.27;;
8092;SDS011;4089;52.420;13.334;2023-07-13T03:05:47;31.50;;;4.33;;
8092;SDS011;4089;52.420;13.334;2023-07-13T03:08:16;33.27;;;4.23;;
8092;SDS011;4089;52.420;13.334;2023-07-13T03:10:44;34.17;;;4.60;;
8092;SDS011;4089;52.420;13.334;2023-07-13T03:13:11;42.30;;;4.90;;
8092;SDS011;4089;52.420;13.334;2023-07-13T03:15:38;32.40;;;4.53;;
8092;SDS011;4089;52.420;13.334;2023-07-13T03:18:05;30.70;;;5.00;;
8092;SDS011;4089;52.420;13.334;2023-07-13T03:20:33;30.13;;;3.97;;
8092;SDS011;4089;52.420;13.334;2023-07-13T03:23:00;32.67;;;4.40;;
8092;SDS011;4089;52.420;13.334;2023-07-13T03:25:27;34.13;;;4.33;;
8092;SDS011;4089;52.420;13.334;2023-07-13T03:27:54;30.83;;;3.80;;
8092;SDS011;4089;52.420;13.334;2023-07-13T03:30:21;29.90;;;4.00;;
8092;SDS011;4089;52.420;13.334;2023-07-13T03:32:47;30.70;;;4.00;;
8092;SDS011;4089;52.420;13.334;2023-07-13T03:35:14;32.97;;;4.30;;
8092;SDS011;4089;52.420;13.334;2023-07-13T03:37:41;28.73;;;4.40;;
8092;SDS011;4089;52.420;13.334;2023-07-13T03:40:09;30.50;;;4.80;;
8092;SDS011;4089;52.420;13.334;2023-07-13T03:42:37;30.90;;;4.20;;
8092;SDS011;4089;52.420;13.334;2023-07-13T03:45:04;29.33;;;4.10;;
8092;SDS011;4089;52.420;13.334;2023-07-13T03:47:31;33.87;;;4.30;;
8092;SDS011;4089;52.420;13.334;2023-07-13T03:49:58;32.47;;;4.43;;
8092;SDS011;4089;52.420;13.334;2023-07-13T03:52:25;31.43;;;4.30;;
8092;SDS011;4089;52.420;13.334;2023-07-13T03:54:52;33.10;;;4.87;;
8092;SDS011;4089;52.420;13.334;2023-07-13T03:57:19;31.10;;;4.80;;
8092;SDS011;4089;52.420;13.334;2023-07-13T03:59:46;29.50;;;4.23;;
8092;SDS011;4089;52.420;13.334;2023-07-13T04:02:12;31.50;;;4.90;;
8092;SDS011;4089;52.420;13.334;2023-07-13T04:04:40;35.40;;;5.20;;
8092;SDS011;4089;52.420;13.334;2023-07-13T04:07:07;31.83;;;4.37;;
8092;SDS011;4089;52.420;13.334;2023-07-13T04:09:37;30.10;;;4.23;;
8092;SDS011;4089;52.420;13.334;2023-07-13T04:12:04;33.00;;;4.37;;
8092;SDS011;4089;52.420;13.334;2023-07-13T04:14:31;31.77;;;4.30;;
8092;SDS011;4089;52.420;13.334;2023-07-13T04:16:58;29.70;;;4.50;;
8092;SDS011;4089;52.420;13.334;2023-07-13T04:19:24;32.03;;;4.40;;
8092;SDS011;4089;52.420;13.334;2023-07-13T04:21:51;30.63;;;4.30;;
8092;SDS011;4089;52.420;13.334;2023-07-13T04:24:18;28.97;;;4.20;;
8092;SDS011;4089;52.420;13.334;2023-07-13T04:26:45;35.53;;;4.00;;
8092;SDS011;4089;52.420;13.334;2023-07-13T04:29:12;28.70;;;4.43;;
8092;SDS011;4089;52.420;13.334;2023-07-13T04:31:39;29.80;;;4.00;;
8092;SDS011;4089;52.420;13.334;2023-07-13T04:34:06;31.97;;;4.87;;
8092;SDS011;4089;52.420;13.334;2023-07-13T04:36:33;26.90;;;4.00;;
8092;SDS011;4089;52.420;13.334;2023-07-13T04:38:59;26.37;;;3.70;;
8092;SDS011;4089;52.420;13.334;2023-07-13T04:41:26;33.03;;;4.00;;
8092;SDS011;4089;52.420;13.334;2023-07-13T04:43:54;28.10;;;4.10;;
8092;SDS011;4089;52.420;13.334;2023-07-13T04:46:22;30.67;;;4.03;;
8092;SDS011;4089;52.420;13.334;2023-07-13T04:48:49;26.50;;;3.50;;
8092;SDS011;4089;52.420;13.334;2023-07-13T04:51:19;26.70;;;3.60;;
8092;SDS011;4089;52.420;13.334;2023-07-13T04:53:46;30.43;;;3.73;;
8092;SDS011;4089;52.420;13.334;2023-07-13T04:56:13;25.57;;;3.20;;
8092;SDS011;4089;52.420;13.334;2023-07-13T04:58:39;30.00;;;4.33;;
8092;SDS011;4089;52.420;13.334;2023-07-13T05:01:06;24.70;;;3.10;;
8092;SDS011;4089;52.420;13.334;2023-07-13T05:03:35;27.03;;;2.80;;
8092;SDS011;4089;52.420;13.334;2023-07-13T05:06:03;29.87;;;3.47;;
8092;SDS011;4089;52.420;13.334;2023-07-13T05:08:32;27.60;;;3.87;;
8092;SDS011;4089;52.420;13.334;2023-07-13T05:11:00;26.60;;;3.17;;
8092;SDS011;4089;52.420;13.334;2023-07-13T05:13:27;30.23;;;3.23;;
8092;SDS011;4089;52.420;13.334;2023-07-13T05:15:59;26.17;;;3.43;;
8092;SDS011;4089;52.420;13.334;2023-07-13T05:18:28;26.47;;;3.20;;
8092;SDS011;4089;52.420;13.334;2023-07-13T05:20:59;28.90;;;3.70;;
8092;SDS011;4089;52.420;13.334;2023-07-13T05:23:32;31.57;;;3.37;;
8092;SDS011;4089;52.420;13.334;2023-07-13T05:26:00;30.40;;;2.93;;
8092;SDS011;4089;52.420;13.334;2023-07-13T05:28:32;35.37;;;3.73;;
8092;SDS011;4089;52.420;13.334;2023-07-13T05:30:59;29.63;;;3.00;;
8092;SDS011;4089;52.420;13.334;2023-07-13T05:33:26;25.97;;;2.97;;
8092;SDS011;4089;52.420;13.334;2023-07-13T05:35:53;26.40;;;3.30;;
8092;SDS011;4089;52.420;13.334;2023-07-13T05:38:20;27.83;;;3.20;;
8092;SDS011;4089;52.420;13.334;2023-07-13T05:40:48;30.17;;;2.80;;
8092;SDS011;4089;52.420;13.334;2023-07-13T05:43:16;29.63;;;3.20;;
8092;SDS011;4089;52.420;13.334;2023-07-13T05:45:43;27.47;;;2.87;;
8092;SDS011;4089;52.420;13.334;2023-07-13T05:48:10;24.17;;;2.10;;
8092;SDS011;4089;52.420;13.334;2023-07-13T05:50:37;25.23;;;2.60;;
8092;SDS011;4089;52.420;13.334;2023-07-13T05:53:04;27.33;;;2.90;;
8092;SDS011;4089;52.420;13.334;2023-07-13T05:55:31;26.53;;;2.73;;
8092;SDS011;4089;52.420;13.334;2023-07-13T05:57:59;26.60;;;2.90;;
8092;SDS011;4089;52.420;13.334;2023-07-13T06:00:26;30.23;;;3.90;;
8092;SDS011;4089;52.420;13.334;2023-07-13T06:02:53;27.20;;;2.60;;
8092;SDS011;4089;52.420;13.334;2023-07-13T06:05:22;26.33;;;3.30;;
8092;SDS011;4089;52.420;13.334;2023-07-13T06:07:49;30.00;;;2.80;;
8092;SDS011;4089;52.420;13.334;2023-07-13T06:10:16;25.77;;;2.57;;
8092;SDS011;4089;52.420;13.334;2023-07-13T06:12:43;27.57;;;2.40;;
8092;SDS011;4089;52.420;13.334;2023-07-13T06:15:10;26.40;;;2.50;;
8092;SDS011;4089;52.420;13.334;2023-07-13T06:17:37;26.63;;;2.53;;
8092;SDS011;4089;52.420;13.334;2023-07-13T06:20:04;35.50;;;3.27;;
8092;SDS011;4089;52.420;13.334;2023-07-13T06:22:31;30.97;;;2.13;;
8092;SDS011;4089;52.420;13.334;2023-07-13T06:24:58;28.03;;;2.90;;
8092;SDS011;4089;52.420;13.334;2023-07-13T06:27:25;27.97;;;2.90;;
8092;SDS011;4089;52.420;13.334;2023-07-13T06:29:53;31.13;;;2.50;;
8092;SDS011;4089;52.420;13.334;2023-07-13T06:32:20;26.10;;;2.60;;
8092;SDS011;4089;52.420;13.334;2023-07-13T06:34:47;31.17;;;2.53;;
8092;SDS011;4089;52.420;13.334;2023-07-13T06:37:14;27.40;;;2.60;;
8092;SDS011;4089;52.420;13.334;2023-07-13T06:39:40;25.00;;;2.10;;
8092;SDS011;4089;52.420;13.334;2023-07-13T06:42:07;27.10;;;2.37;;
8092;SDS011;4089;52.420;13.334;2023-07-13T06:44:34;27.23;;;2.03;;
8092;SDS011;4089;52.420;13.334;2023-07-13T06:47:01;32.60;;;2.30;;
8092;SDS011;4089;52.420;13.334;2023-07-13T06:49:28;25.07;;;2.23;;
8092;SDS011;4089;52.420;13.334;2023-07-13T06:51:55;25.70;;;1.93;;
8092;SDS011;4089;52.420;13.334;2023-07-13T06:54:22;26.73;;;1.97;;
8092;SDS011;4089;52.420;13.334;2023-07-13T06:56:49;32.93;;;2.40;;
8092;SDS011;4089;52.420;13.334;2023-07-13T06:59:16;25.30;;;2.03;;
8092;SDS011;4089;52.420;13.334;2023-07-13T07:01:43;32.73;;;2.17;;
8092;SDS011;4089;52.420;13.334;2023-07-13T07:04:16;31.73;;;3.23;;
8092;SDS011;4089;52.420;13.334;2023-07-13T07:06:43;29.43;;;2.53;;
8092;SDS011;4089;52.420;13.334;2023-07-13T07:09:11;30.17;;;2.10;;
8092;SDS011;4089;52.420;13.334;2023-07-13T07:11:39;27.73;;;2.30;;
8092;SDS011;4089;52.420;13.334;2023-07-13T07:14:25;24.53;;;1.70;;
8092;SDS011;4089;52.420;13.334;2023-07-13T07:16:52;27.90;;;1.80;;
8092;SDS011;4089;52.420;13.334;2023-07-13T07:19:19;29.97;;;2.20;;
8092;SDS011;4089;52.420;13.334;2023-07-13T07:21:46;28.27;;;2.00;;
8092;SDS011;4089;52.420;13.334;2023-07-13T07:24:13;26.97;;;1.90;;
8092;SDS011;4089;52.420;13.334;2023-07-13T07:26:40;25.50;;;1.60;;
8092;SDS011;4089;52.420;13.334;2023-07-13T07:29:26;28.27;;;2.43;;
8092;SDS011;4089;52.420;13.334;2023-07-13T07:31:58;26.57;;;1.90;;
8092;SDS011;4089;52.420;13.334;2023-07-13T07:34:32;27.20;;;1.80;;
8092;SDS011;4089;52.420;13.334;2023-07-13T07:36:59;29.47;;;1.90;;
8092;SDS011;4089;52.420;13.334;2023-07-13T07:39:30;27.00;;;1.33;;
8092;SDS011;4089;52.420;13.334;2023-07-13T07:41:57;28.27;;;1.80;;
8092;SDS011;4089;52.420;13.334;2023-07-13T07:44:24;26.10;;;1.67;;
8092;SDS011;4089;52.420;13.334;2023-07-13T07:46:53;26.10;;;1.73;;
8092;SDS011;4089;52.420;13.334;2023-07-13T07:49:20;27.50;;;1.93;;
8092;SDS011;4089;52.420;13.334;2023-07-13T07:51:47;32.90;;;2.30;;
8092;SDS011;4089;52.420;13.334;2023-07-13T07:54:15;27.57;;;1.53;;
8092;SDS011;4089;52.420;13.334;2023-07-13T07:56:55;28.10;;;2.17;;
8092;SDS011;4089;52.420;13.334;2023-07-13T07:59:24;31.13;;;1.73;;
8092;SDS011;4089;52.420;13.334;2023-07-13T08:01:54;27.97;;;1.97;;
8092;SDS011;4089;52.420;13.334;2023-07-13T08:04:24;28.60;;;1.97;;
8092;SDS011;4089;52.420;13.334;2023-07-13T08:06:54;28.43;;;1.67;;
8092;SDS011;4089;52.420;13.334;2023-07-13T08:09:22;29.93;;;1.63;;
8092;SDS011;4089;52.420;13.334;2023-07-13T08:11:49;27.60;;;1.63;;
8092;SDS011;4089;52.420;13.334;2023-07-13T08:14:21;27.87;;;1.80;;
8092;SDS011;4089;52.420;13.334;2023-07-13T08:16:48;26.27;;;1.60;;
8092;SDS011;4089;52.420;13.334;2023-07-13T08:19:15;28.13;;;2.57;;
8092;SDS011;4089;52.420;13.334;2023-07-13T08:21:42;26.93;;;1.87;;
8092;SDS011;4089;52.420;13.334;2023-07-13T08:24:09;27.50;;;1.70;;
8092;SDS011;4089;52.420;13.334;2023-07-13T08:26:36;27.23;;;2.07;;
8092;SDS011;4089;52.420;13.334;2023-07-13T08:29:03;30.17;;;1.83;;
8092;SDS011;4089;52.420;13.334;2023-07-13T08:31:30;26.40;;;1.47;;
8092;SDS011;4089;52.420;13.334;2023-07-13T08:33:57;26.83;;;1.67;;
8092;SDS011;4089;52.420;13.334;2023-07-13T08:36:25;27.47;;;1.80;;
8092;SDS011;4089;52.420;13.334;2023-07-13T08:38:53;27.60;;;1.93;;
8092;SDS011;4089;52.420;13.334;2023-07-13T08:41:20;29.73;;;2.20;;
8092;SDS011;4089;52.420;13.334;2023-07-13T08:43:49;27.57;;;1.87;;
8092;SDS011;4089;52.420;13.334;2023-07-13T08:46:19;30.03;;;2.17;;
8092;SDS011;4089;52.420;13.334;2023-07-13T08:48:59;26.80;;;1.90;;
8092;SDS011;4089;52.420;13.334;2023-07-13T08:54:12;28.07;;;2.13;;
8092;SDS011;4089;52.420;13.334;2023-07-13T08:57:02;30.10;;;1.60;;
8092;SDS011;4089;52.420;13.334;2023-07-13T08:59:38;27.80;;;1.80;;
8092;SDS011;4089;52.420;13.334;2023-07-13T09:04:56;28.70;;;1.50;;
8092;SDS011;4089;52.420;13.334;2023-07-13T09:10:29;33.17;;;1.77;;
8092;SDS011;4089;52.420;13.334;2023-07-13T09:15:50;31.87;;;2.43;;
8092;SDS011;4089;52.420;13.334;2023-07-13T09:21:43;33.40;;;2.00;;
8092;SDS011;4089;52.420;13.334;2023-07-13T09:23:48;31.37;;;2.57;;
8092;SDS011;4089;52.420;13.334;2023-07-13T09:26:21;29.60;;;2.37;;
8092;SDS011;4089;52.420;13.334;2023-07-13T09:28:51;29.23;;;2.40;;
8092;SDS011;4089;52.420;13.334;2023-07-13T09:31:39;29.90;;;2.03;;
8092;SDS011;4089;52.420;13.334;2023-07-13T09:34:10;32.30;;;2.10;;
8092;SDS011;4089;52.420;13.334;2023-07-13T09:36:38;39.53;;;2.77;;
8092;SDS011;4089;52.420;13.334;2023-07-13T09:47:03;29.20;;;2.83;;
8092;SDS011;4089;52.420;13.334;2023-07-13T09:49:57;33.77;;;3.30;;
8092;SDS011;4089;52.420;13.334;2023-07-13T09:52:38;31.27;;;2.80;;
8092;SDS011;4089;52.420;13.334;2023-07-13T09:55:23;32.20;;;3.27;;
8092;SDS011;4089;52.420;13.334;2023-07-13T09:57:56;28.30;;;3.43;;
8092;SDS011;4089;52.420;13.334;2023-07-13T10:00:27;30.97;;;3.17;;
8092;SDS011;4089;52.420;13.334;2023-07-13T10:02:59;32.13;;;3.33;;
8092;SDS011;4089;52.420;13.334;2023-07-13T10:05:40;29.73;;;2.67;;
8092;SDS011;4089;52.420;13.334;2023-07-13T10:10:52;31.80;;;3.47;;
8092;SDS011;4089;52.420;13.334;2023-07-13T10:13:37;30.87;;;2.90;;
8092;SDS011;4089;52.420;13.334;2023-07-13T10:16:09;33.73;;;2.77;;
8092;SDS011;4089;52.420;13.334;2023-07-13T10:18:42;29.90;;;2.90;;
8092;SDS011;4089;52.420;13.334;2023-07-13T10:21:17;39.53;;;3.70;;
8092;SDS011;4089;52.420;13.334;2023-07-13T10:24:06;30.30;;;2.80;;
8092;SDS011;4089;52.420;13.334;2023-07-13T10:26:45;31.30;;;2.57;;
8092;SDS011;4089;52.420;13.334;2023-07-13T10:29:17;31.03;;;2.53;;
8092;SDS011;4089;52.420;13.334;2023-07-13T10:31:46;27.70;;;2.17;;
8092;SDS011;4089;52.420;13.334;2023-07-13T10:34:13;33.37;;;2.70;;
8092;SDS011;4089;52.420;13.334;2023-07-13T10:36:42;32.00;;;2.83;;
8092;SDS011;4089;52.420;13.334;2023-07-13T10:39:14;30.73;;;3.20;;
8092;SDS011;4089;52.420;13.334;2023-07-13T10:41:53;37.67;;;2.80;;
8092;SDS011;4089;52.420;13.334;2023-07-13T10:44:31;33.13;;;2.57;;
8092;SDS011;4089;52.420;13.334;2023-07-13T10:47:07;31.07;;;2.87;;
8092;SDS011;4089;52.420;13.334;2023-07-13T10:49:37;28.77;;;2.80;;
8092;SDS011;4089;52.420;13.334;2023-07-13T10:52:34;32.07;;;2.67;;
8092;SDS011;4089;52.420;13.334;2023-07-13T10:58:24;29.00;;;2.40;;
8092;SDS011;4089;52.420;13.334;2023-07-13T11:01:17;30.47;;;2.70;;
8092;SDS011;4089;52.420;13.334;2023-07-13T11:11:56;38.60;;;2.50;;
8092;SDS011;4089;52.420;13.334;2023-07-13T11:14:26;33.57;;;2.50;;
8092;SDS011;4089;52.420;13.334;2023-07-13T11:19:51;28.67;;;2.63;;
8092;SDS011;4089;52.420;13.334;2023-07-13T11:22:23;33.40;;;2.53;;
8092;SDS011;4089;52.420;13.334;2023-07-13T11:35:36;30.93;;;2.30;;
8092;SDS011;4089;52.420;13.334;2023-07-13T11:38:20;31.13;;;2.90;;
8092;SDS011;4089;52.420;13.334;2023-07-13T11:40:53;30.13;;;2.47;;
8092;SDS011;4089;52.420;13.334;2023-07-13T11:43:22;30.40;;;2.90;;
8092;SDS011;4089;52.420;13.334;2023-07-13T11:45:52;29.07;;;2.57;;
8092;SDS011;4089;52.420;13.334;2023-07-13T11:51:00;30.60;;;2.70;;
8092;SDS011;4089;52.420;13.334;2023-07-13T11:53:44;31.17;;;2.57;;
8092;SDS011;4089;52.420;13.334;2023-07-13T11:56:18;32.47;;;3.13;;
8092;SDS011;4089;52.420;13.334;2023-07-13T11:58:48;36.47;;;2.90;;
8092;SDS011;4089;52.420;13.334;2023-07-13T12:01:21;30.20;;;2.40;;
8092;SDS011;4089;52.420;13.334;2023-07-13T12:03:50;32.87;;;2.80;;
8092;SDS011;4089;52.420;13.334;2023-07-13T12:06:22;29.70;;;2.57;;
8092;SDS011;4089;52.420;13.334;2023-07-13T12:08:50;32.90;;;3.07;;
8092;SDS011;4089;52.420;13.334;2023-07-13T12:11:18;30.90;;;2.60;;
8092;SDS011;4089;52.420;13.334;2023-07-13T12:13:46;32.70;;;2.90;;
8092;SDS011;4089;52.420;13.334;2023-07-13T12:16:15;37.00;;;2.67;;
8092;SDS011;4089;52.420;13.334;2023-07-13T12:18:48;36.53;;;2.53;;
8092;SDS011;4089;52.420;13.334;2023-07-13T12:21:18;34.10;;;2.47;;
8092;SDS011;4089;52.420;13.334;2023-07-13T12:23:48;30.90;;;2.33;;
8092;SDS011;4089;52.420;13.334;2023-07-13T12:26:17;33.90;;;2.67;;
8092;SDS011;4089;52.420;13.334;2023-07-13T12:28:46;32.03;;;2.57;;
8092;SDS011;4089;52.420;13.334;2023-07-13T12:34:08;30.80;;;1.80;;
8092;SDS011;4089;52.420;13.334;2023-07-13T12:36:49;30.87;;;1.90;;
8092;SDS011;4089;52.420;13.334;2023-07-13T12:39:19;31.00;;;2.00;;
8092;SDS011;4089;52.420;13.334;2023-07-13T12:41:50;31.47;;;2.10;;
8092;SDS011;4089;52.420;13.334;2023-07-13T12:44:22;30.30;;;2.23;;
8092;SDS011;4089;52.420;13.334;2023-07-13T12:46:54;34.13;;;3.10;;
8092;SDS011;4089;52.420;13.334;2023-07-13T12:49:26;29.40;;;2.40;;
8092;SDS011;4089;52.420;13.334;2023-07-13T12:51:57;34.57;;;2.57;;
8092;SDS011;4089;52.420;13.334;2023-07-13T12:54:26;30.97;;;2.10;;
8092;SDS011;4089;52.420;13.334;2023-07-13T12:56:54;33.60;;;2.50;;
8092;SDS011;4089;52.420;13.334;2023-07-13T12:59:25;32.50;;;2.60;;
8092;SDS011;4089;52.420;13.334;2023-07-13T13:01:56;32.80;;;2.70;;
8092;SDS011;4089;52.420;13.334;2023-07-13T13:04:23;31.87;;;1.93;;
8092;SDS011;4089;52.420;13.334;2023-07-13T13:07:00;28.37;;;1.80;;
8092;SDS011;4089;52.420;13.334;2023-07-13T13:09:30;31.60;;;2.17;;
8092;SDS011;4089;52.420;13.334;2023-07-13T13:11:57;34.20;;;2.23;;
8092;SDS011;4089;52.420;13.334;2023-07-13T13:14:24;32.03;;;2.20;;
8092;SDS011;4089;52.420;13.334;2023-07-13T13:16:51;29.27;;;1.60;;
8092;SDS011;4089;52.420;13.334;2023-07-13T13:19:24;29.23;;;1.63;;
8092;SDS011;4089;52.420;13.334;2023-07-13T13:21:53;29.73;;;2.20;;
8092;SDS011;4089;52.420;13.334;2023-07-13T13:24:23;29.83;;;1.90;;
8092;SDS011;4089;52.420;13.334;2023-07-13T13:26:52;33.00;;;2.40;;
8092;SDS011;4089;52.420;13.334;2023-07-13T13:29:21;29.50;;;2.07;;
8092;SDS011;4089;52.420;13.334;2023-07-13T13:31:51;33.90;;;2.00;;
8092;SDS011;4089;52.420;13.334;2023-07-13T13:34:22;37.80;;;2.23;;
8092;SDS011;4089;52.420;13.334;2023-07-13T13:36:50;30.30;;;1.80;;
8092;SDS011;4089;52.420;13.334;2023-07-13T13:39:24;28.40;;;1.70;;
8092;SDS011;4089;52.420;13.334;2023-07-13T13:41:55;33.90;;;2.23;;
8092;SDS011;4089;52.420;13.334;2023-07-13T13:44:22;28.57;;;1.50;;
8092;SDS011;4089;52.420;13.334;2023-07-13T13:46:51;34.40;;;2.83;;
8092;SDS011;4089;52.420;13.334;2023-07-13T13:49:24;30.57;;;1.90;;
8092;SDS011;4089;52.420;13.334;2023-07-13T13:51:52;33.70;;;1.70;;
8092;SDS011;4089;52.420;13.334;2023-07-13T13:54:20;31.73;;;2.13;;
8092;SDS011;4089;52.420;13.334;2023-07-13T13:56:50;30.23;;;1.90;;
8092;SDS011;4089;52.420;13.334;2023-07-13T13:59:18;29.03;;;1.90;;
8092;SDS011;4089;52.420;13.334;2023-07-13T14:01:45;30.50;;;1.67;;
8092;SDS011;4089;52.420;13.334;2023-07-13T14:04:18;34.53;;;1.60;;
8092;SDS011;4089;52.420;13.334;2023-07-13T14:06:47;31.40;;;1.50;;
8092;SDS011;4089;52.420;13.334;2023-07-13T14:09:15;34.00;;;1.87;;
8092;SDS011;4089;52.420;13.334;2023-07-13T14:11:45;30.73;;;1.70;;
8092;SDS011;4089;52.420;13.334;2023-07-13T14:14:17;29.70;;;1.97;;
8092;SDS011;4089;52.420;13.334;2023-07-13T14:16:49;31.80;;;1.50;;
8092;SDS011;4089;52.420;13.334;2023-07-13T14:19:20;29.40;;;1.43;;
8092;SDS011;4089;52.420;13.334;2023-07-13T14:21:47;30.80;;;1.50;;
8092;SDS011;4089;52.420;13.334;2023-07-13T14:24:16;32.83;;;1.50;;
8092;SDS011;4089;52.420;13.334;2023-07-13T14:26:43;31.33;;;1.80;;
8092;SDS011;4089;52.420;13.334;2023-07-13T14:29:13;29.40;;;1.40;;
8092;SDS011;4089;52.420;13.334;2023-07-13T14:31:44;29.80;;;1.47;;
8092;SDS011;4089;52.420;13.334;2023-07-13T14:34:11;35.90;;;1.60;;
8092;SDS011;4089;52.420;13.334;2023-07-13T14:36:46;28.10;;;1.40;;
8092;SDS011;4089;52.420;13.334;2023-07-13T14:39:16;28.90;;;1.50;;
8092;SDS011;4089;52.420;13.334;2023-07-13T14:41:45;30.37;;;1.60;;
8092;SDS011;4089;52.420;13.334;2023-07-13T14:44:13;32.03;;;1.30;;
8092;SDS011;4089;52.420;13.334;2023-07-13T14:46:41;28.77;;;1.20;;
8092;SDS011;4089;52.420;13.334;2023-07-13T14:49:31;32.73;;;1.60;;
8092;SDS011;4089;52.420;13.334;2023-07-13T14:52:13;28.97;;;1.30;;
8092;SDS011;4089;52.420;13.334;2023-07-13T14:54:43;31.90;;;1.30;;
8092;SDS011;4089;52.420;13.334;2023-07-13T14:57:14;30.80;;;1.20;;
8092;SDS011;4089;52.420;13.334;2023-07-13T14:59:44;28.57;;;1.20;;
8092;SDS011;4089;52.420;13.334;2023-07-13T15:02:16;30.23;;;1.20;;
8092;SDS011;4089;52.420;13.334;2023-07-13T15:04:56;31.27;;;1.47;;
8092;SDS011;4089;52.420;13.334;2023-07-13T15:07:23;29.43;;;1.00;;
8092;SDS011;4089;52.420;13.334;2023-07-13T15:09:50;26.27;;;0.97;;
8092;SDS011;4089;52.420;13.334;2023-07-13T15:12:17;27.13;;;1.20;;
8092;SDS011;4089;52.420;13.334;2023-07-13T15:14:46;36.70;;;1.50;;
8092;SDS011;4089;52.420;13.334;2023-07-13T15:17:33;30.00;;;1.30;;
8092;SDS011;4089;52.420;13.334;2023-07-13T15:20:11;35.30;;;1.70;;
8092;SDS011;4089;52.420;13.334;2023-07-13T15:22:47;30.47;;;1.27;;
8092;SDS011;4089;52.420;13.334;2023-07-13T15:25:19;28.43;;;1.00;;
8092;SDS011;4089;52.420;13.334;2023-07-13T15:27:47;38.70;;;1.40;;
8092;SDS011;4089;52.420;13.334;2023-07-13T15:30:14;28.03;;;1.30;;
8092;SDS011;4089;52.420;13.334;2023-07-13T15:32:45;33.50;;;1.27;;
8092;SDS011;4089;52.420;13.334;2023-07-13T15:35:13;31.70;;;1.70;;
8092;SDS011;4089;52.420;13.334;2023-07-13T15:37:42;28.47;;;1.20;;
8092;SDS011;4089;52.420;13.334;2023-07-13T15:40:09;30.10;;;1.13;;
8092;SDS011;4089;52.420;13.334;2023-07-13T15:42:38;29.27;;;1.57;;
8092;SDS011;4089;52.420;13.334;2023-07-13T15:45:25;28.70;;;1.20;;
8092;SDS011;4089;52.420;13.334;2023-07-13T15:47:51;33.47;;;1.50;;
8092;SDS011;4089;52.420;13.334;2023-07-13T15:50:20;32.43;;;1.90;;
8092;SDS011;4089;52.420;13.334;2023-07-13T15:52:50;31.20;;;1.30;;
8092;SDS011;4089;52.420;13.334;2023-07-13T15:55:20;31.80;;;1.30;;
8092;SDS011;4089;52.420;13.334;2023-07-13T15:57:48;27.93;;;1.20;;
8092;SDS011;4089;52.420;13.334;2023-07-13T16:00:18;34.87;;;1.43;;
8092;SDS011;4089;52.420;13.334;2023-07-13T16:02:51;28.57;;;1.17;;
8092;SDS011;4089;52.420;13.334;2023-07-13T16:05:19;28.27;;;1.00;;
8092;SDS011;4089;52.420;13.334;2023-07-13T16:07:48;29.67;;;1.20;;